Time;durP1;ratioP1;P1;durP2;ratioP2;P2;SDS_P1;SDS_P2;PMS_P1;PMS_P2;Temp;Humidity;BMP_temperature;BMP_pressure;BME280_temperature;BME280_humidity;BME280_pressure;Samples;Min_cycle;Max_cycle;Signal;HPM_P1;HPM_P2
2023/05/04 00:02:23;;;;;;;11.73;5.03;;;11.90;85.40;;;;;;5068160;28;20834;-72
2023/05/04 00:05:12;;;;;;;14.05;5.82;;;11.90;85.00;;;;;;5072528;28;20235;-71
2023/05/04 00:08:03;;;;;;;8.60;5.13;;;11.80;84.70;;;;;;5069435;28;20816;-71
2023/05/04 00:10:53;;;;;;;10.60;5.55;;;11.80;85.40;;;;;;5072303;28;20857;-70
2023/05/04 00:13:41;;;;;;;8.38;5.30;;;11.70;85.40;;;;;;5067540;28;20208;-69
2023/05/04 00:16:30;;;;;;;9.50;5.70;;;11.70;85.90;;;;;;5066427;28;21905;-70
2023/05/04 00:19:19;;;;;;;8.40;5.22;;;11.70;86.10;;;;;;5072448;28;20272;-70
2023/05/04 00:22:08;;;;;;;11.07;5.63;;;11.70;87.20;;;;;;5069243;28;20655;-67
2023/05/04 00:24:59;;;;;;;7.97;5.25;;;11.60;87.40;;;;;;5068171;28;20232;-70
2023/05/04 00:27:48;;;;;;;10.40;5.20;;;11.60;87.20;;;;;;5067990;28;20308;-70
2023/05/04 00:30:36;;;;;;;11.60;6.07;;;11.40;87.30;;;;;;5079619;28;20307;-73
2023/05/04 00:33:25;;;;;;;10.05;6.00;;;11.30;88.30;;;;;;5069870;28;20235;-73
2023/05/04 00:36:14;;;;;;;11.93;5.68;;;11.20;87.90;;;;;;5071041;28;20231;-72
2023/05/04 00:39:03;;;;;;;24.73;7.93;;;11.30;88.80;;;;;;5077714;28;20710;-72
2023/05/04 00:41:53;;;;;;;16.20;6.78;;;11.40;89.90;;;;;;5072591;28;20240;-72
2023/05/04 00:44:43;;;;;;;21.05;6.78;;;11.40;89.30;;;;;;5076551;28;20263;-70
2023/05/04 00:47:32;;;;;;;19.67;6.85;;;11.40;89.30;;;;;;5071970;28;20211;-73
2023/05/04 00:50:22;;;;;;;11.68;6.38;;;11.50;88.90;;;;;;5077643;28;20238;-73
2023/05/04 00:53:11;;;;;;;12.05;6.90;;;11.40;88.30;;;;;;5068704;28;20228;-73
2023/05/04 00:56:01;;;;;;;11.93;6.47;;;11.40;88.90;;;;;;5065083;28;20228;-72
2023/05/04 00:58:53;;;;;;;10.90;6.60;;;11.30;89.60;;;;;;5067887;28;20224;-73
2023/05/04 01:01:42;;;;;;;13.25;6.97;;;11.20;89.80;;;;;;5068012;28;20212;-72
2023/05/04 01:04:31;;;;;;;12.18;6.88;;;11.30;90.40;;;;;;5074938;28;20298;-71
2023/05/04 01:07:27;;;;;;;12.32;6.75;;;11.20;90.10;;;;;;5067285;28;20706;-70
2023/05/04 01:10:20;;;;;;;11.38;6.25;;;11.30;90.40;;;;;;5071213;28;20224;-69
2023/05/04 01:13:12;;;;;;;11.77;6.63;;;11.20;90.80;;;;;;5065147;28;20228;-69
2023/05/04 01:16:03;;;;;;;11.55;5.82;;;11.20;90.90;;;;;;5067780;28;20223;-69
2023/05/04 01:18:52;;;;;;;16.98;6.28;;;11.20;91.10;;;;;;5071966;28;20698;-70
2023/05/04 01:21:42;;;;;;;11.75;6.22;;;11.00;91.40;;;;;;5070690;28;20718;-70
2023/05/04 01:24:31;;;;;;;11.52;6.47;;;11.10;91.70;;;;;;5062238;28;20235;-72
2023/05/04 01:27:26;;;;;;;12.10;6.43;;;11.10;91.80;;;;;;5068308;28;20236;-69
2023/05/04 01:30:19;;;;;;;11.80;6.35;;;11.10;92.00;;;;;;5066280;28;20726;-71
2023/05/04 01:33:09;;;;;;;12.77;6.75;;;11.10;91.80;;;;;;5074076;28;20576;-72
2023/05/04 01:35:59;;;;;;;11.68;7.95;;;10.90;91.70;;;;;;5081071;28;20232;-73
2023/05/04 01:38:49;;;;;;;10.82;6.30;;;11.00;91.20;;;;;;5063503;28;20220;-73
2023/05/04 01:41:40;;;;;;;12.48;7.38;;;11.00;91.80;;;;;;5065841;28;20443;-72
2023/05/04 01:44:29;;;;;;;10.13;6.90;;;11.00;91.30;;;;;;5075159;28;20257;-72
2023/05/04 01:47:18;;;;;;;12.43;7.82;;;10.90;91.40;;;;;;5069063;28;20250;-72
2023/05/04 01:50:08;;;;;;;13.40;7.93;;;10.90;91.40;;;;;;5073045;28;20293;-72
2023/05/04 01:52:56;;;;;;;14.63;7.95;;;10.90;91.40;;;;;;5068303;28;20840;-71
2023/05/04 01:55:47;;;;;;;12.35;7.18;;;10.80;91.50;;;;;;5070010;28;20227;-72
2023/05/04 01:58:37;;;;;;;10.98;7.05;;;10.70;92.30;;;;;;5064573;28;20628;-68
2023/05/04 02:01:26;;;;;;;11.55;7.13;;;10.70;92.30;;;;;;5079529;28;20246;-70
2023/05/04 02:04:14;;;;;;;13.52;8.07;;;10.80;92.30;;;;;;5085117;28;20647;-71
2023/05/04 02:07:03;;;;;;;12.77;7.78;;;10.70;92.70;;;;;;5092715;28;20316;-72
2023/05/04 02:09:52;;;;;;;13.63;7.43;;;10.70;92.60;;;;;;5062128;28;20338;-72
2023/05/04 02:12:45;;;;;;;12.63;7.40;;;10.80;92.80;;;;;;5069285;28;20266;-72
2023/05/04 02:15:33;;;;;;;13.15;8.40;;;10.40;92.70;;;;;;5069482;28;20235;-73
2023/05/04 02:18:22;;;;;;;16.10;8.63;;;10.50;92.90;;;;;;5076779;28;20386;-71
2023/05/04 02:21:11;;;;;;;13.07;8.13;;;10.60;93.10;;;;;;5077404;28;20224;-70
2023/05/04 02:24:05;;;;;;;15.55;9.60;;;10.70;92.30;;;;;;5077784;28;20231;-70
2023/05/04 02:26:54;;;;;;;15.00;8.93;;;10.70;92.40;;;;;;5072554;28;20216;-70
2023/05/04 02:29:44;;;;;;;17.05;9.40;;;10.60;92.20;;;;;;5074170;28;20232;-70
2023/05/04 02:32:33;;;;;;;16.50;9.02;;;10.50;92.30;;;;;;5075994;28;20328;-70
2023/05/04 02:35:22;;;;;;;13.98;8.98;;;10.50;92.10;;;;;;5076375;28;20251;-70
2023/05/04 02:38:11;;;;;;;17.00;9.80;;;10.30;92.20;;;;;;5079206;28;20235;-69
2023/05/04 02:41:00;;;;;;;14.90;9.80;;;10.30;92.60;;;;;;5077518;28;20229;-70
2023/05/04 02:43:49;;;;;;;19.80;10.07;;;10.50;93.10;;;;;;5078472;28;20227;-69
2023/05/04 02:46:40;;;;;;;16.17;9.90;;;10.30;92.50;;;;;;5074191;28;20321;-69
2023/05/04 02:49:29;;;;;;;15.35;9.85;;;10.30;93.10;;;;;;5073763;28;20529;-69
2023/05/04 02:52:17;;;;;;;13.98;9.93;;;10.10;93.20;;;;;;5072432;28;20284;-70
2023/05/04 02:55:07;;;;;;;18.88;10.32;;;10.10;93.40;;;;;;5074262;28;20251;-69
2023/05/04 02:57:56;;;;;;;18.00;10.90;;;10.10;93.50;;;;;;5065869;28;21988;-69
2023/05/04 03:00:45;;;;;;;17.50;10.35;;;10.10;94.00;;;;;;5073182;28;20282;-68
2023/05/04 03:03:35;;;;;;;20.75;11.18;;;10.10;93.70;;;;;;5077649;28;20243;-66
2023/05/04 03:06:24;;;;;;;18.67;11.50;;;10.20;93.80;;;;;;5080286;28;20353;-69
2023/05/04 03:09:13;;;;;;;19.30;12.13;;;10.20;93.70;;;;;;5071724;28;20235;-71
2023/05/04 03:12:02;;;;;;;24.65;13.40;;;10.20;93.60;;;;;;5077643;28;20226;-70
2023/05/04 03:14:51;;;;;;;21.80;12.50;;;10.00;93.30;;;;;;5073834;27;20232;-70
2023/05/04 03:17:40;;;;;;;19.52;12.57;;;10.10;93.90;;;;;;5071147;28;20296;-70
2023/05/04 03:20:31;;;;;;;25.25;13.23;;;10.20;93.60;;;;;;5075291;28;20220;-70
2023/05/04 03:23:22;;;;;;;25.30;13.02;;;10.30;93.40;;;;;;5077163;28;20223;-70
2023/05/04 03:26:10;;;;;;;21.13;13.13;;;10.30;93.50;;;;;;5073421;28;20232;-71
2023/05/04 03:28:59;;;;;;;21.92;13.77;;;10.20;93.20;;;;;;5063787;28;20243;-71
2023/05/04 03:31:48;;;;;;;24.35;14.23;;;10.30;93.50;;;;;;5046725;28;20232;-73
2023/05/04 03:34:38;;;;;;;25.90;14.20;;;10.30;93.10;;;;;;5038044;28;20546;-73
2023/05/04 03:37:30;;;;;;;25.35;14.55;;;10.20;93.10;;;;;;5039456;28;20258;-73
2023/05/04 03:40:21;;;;;;;25.38;14.23;;;10.20;93.40;;;;;;5037575;28;20603;-71
2023/05/04 03:43:12;;;;;;;22.00;14.13;;;10.20;93.10;;;;;;5036360;28;20231;-72
2023/05/04 03:46:04;;;;;;;26.63;15.18;;;10.30;93.00;;;;;;5036686;28;20217;-73
2023/05/04 03:48:53;;;;;;;23.13;14.52;;;10.40;93.20;;;;;;5048688;28;20225;-73
2023/05/04 03:51:42;;;;;;;28.20;16.50;;;10.40;93.30;;;;;;5046688;28;20331;-71
2023/05/04 03:54:32;;;;;;;32.15;18.00;;;10.40;92.60;;;;;;5052339;28;20229;-73
2023/05/04 03:57:23;;;;;;;28.95;17.42;;;10.40;92.40;;;;;;5053206;28;20320;-71
2023/05/04 04:00:15;;;;;;;30.13;17.85;;;10.60;92.00;;;;;;5043960;28;20232;-73
2023/05/04 04:03:09;;;;;;;29.17;18.00;;;10.70;91.40;;;;;;5037244;28;20228;-70
2023/05/04 04:05:59;;;;;;;27.83;17.58;;;10.60;91.30;;;;;;5059482;28;20247;-72
2023/05/04 04:08:48;;;;;;;26.58;17.33;;;10.70;91.40;;;;;;5048242;28;20542;-74
2023/05/04 04:11:38;;;;;;;26.50;17.27;;;10.90;91.70;;;;;;5038082;28;20223;-73
2023/05/04 04:14:27;;;;;;;34.13;17.10;;;11.10;91.70;;;;;;5055082;28;20267;-73
2023/05/04 04:17:16;;;;;;;29.25;17.83;;;10.90;91.50;;;;;;5045635;28;20600;-73
2023/05/04 04:20:06;;;;;;;25.15;15.68;;;11.20;92.10;;;;;;5035427;28;20247;-71
2023/05/04 04:22:55;;;;;;;25.73;16.23;;;11.30;92.00;;;;;;5049065;28;20554;-71
2023/05/04 04:25:44;;;;;;;25.77;15.95;;;11.20;92.00;;;;;;5052661;28;20335;-72
2023/05/04 04:28:35;;;;;;;27.05;15.73;;;11.20;92.60;;;;;;5056120;28;20227;-72
2023/05/04 04:31:24;;;;;;;24.98;15.98;;;11.10;93.20;;;;;;5074681;28;20232;-72
2023/05/04 04:34:13;;;;;;;25.40;16.10;;;11.00;93.30;;;;;;5071588;28;20260;-72
2023/05/04 04:37:02;;;;;;;26.17;16.90;;;11.00;93.40;;;;;;5066289;28;20254;-70
2023/05/04 04:39:51;;;;;;;26.45;18.17;;;11.10;93.70;;;;;;5079659;28;20238;-71
2023/05/04 04:42:40;;;;;;;28.55;16.85;;;11.30;93.60;;;;;;5082925;28;21381;-73
2023/05/04 04:45:31;;;;;;;27.30;16.88;;;11.20;93.10;;;;;;5079424;28;20322;-72
2023/05/04 04:48:22;;;;;;;28.83;17.35;;;11.30;93.50;;;;;;5070300;28;20289;-73
2023/05/04 04:51:12;;;;;;;34.13;17.95;;;11.40;93.10;;;;;;5095520;27;20306;-71
2023/05/04 04:54:01;;;;;;;30.05;17.88;;;11.60;93.00;;;;;;5071372;28;20223;-72
2023/05/04 04:56:49;;;;;;;27.75;17.40;;;11.80;92.70;;;;;;5069976;28;20236;-72
2023/05/04 04:59:38;;;;;;;28.45;17.92;;;11.90;91.90;;;;;;5069910;28;20216;-73
2023/05/04 05:02:28;;;;;;;28.73;18.33;;;12.00;91.70;;;;;;5069689;28;20260;-73
2023/05/04 05:05:17;;;;;;;33.15;19.17;;;12.50;90.80;;;;;;5073002;28;20727;-70
2023/05/04 05:08:06;;;;;;;30.42;19.33;;;13.50;88.90;;;;;;5075574;28;20296;-72
2023/05/04 05:10:56;;;;;;;26.13;19.08;;;13.80;84.80;;;;;;5075126;28;20571;-71
2023/05/04 05:13:44;;;;;;;34.75;19.73;;;13.20;86.70;;;;;;5074834;28;20224;-71
2023/05/04 05:16:33;;;;;;;36.53;19.30;;;12.70;84.00;;;;;;5073307;28;20211;-73
2023/05/04 05:19:24;;;;;;;28.67;18.58;;;12.30;85.90;;;;;;5072985;28;20361;-70
2023/05/04 05:22:13;;;;;;;30.27;19.23;;;12.00;85.40;;;;;;5068995;28;20365;-71
2023/05/04 05:25:03;;;;;;;38.92;19.88;;;12.30;87.50;;;;;;5084102;28;20234;-70
2023/05/04 05:27:52;;;;;;;30.40;17.38;;;12.40;87.60;;;;;;5068188;28;20242;-71
2023/05/04 05:30:41;;;;;;;33.13;17.08;;;12.50;85.40;;;;;;5071882;28;20226;-73
2023/05/04 05:33:31;;;;;;;28.13;17.08;;;12.60;85.70;;;;;;5074378;28;20678;-73
2023/05/04 05:36:21;;;;;;;27.52;16.20;;;12.60;85.00;;;;;;5075847;28;21054;-71
2023/05/04 05:39:10;;;;;;;21.90;15.15;;;12.80;84.10;;;;;;5074896;28;20229;-70
2023/05/04 05:41:59;;;;;;;21.35;13.27;;;13.00;83.70;;;;;;5068756;28;20228;-70
2023/05/04 05:44:48;;;;;;;22.90;12.63;;;13.10;81.10;;;;;;5071285;28;20242;-72
2023/05/04 05:47:37;;;;;;;15.48;10.48;;;12.90;81.00;;;;;;5068517;28;20388;-70
2023/05/04 05:50:25;;;;;;;19.95;11.63;;;12.80;79.20;;;;;;5070455;28;20717;-68
2023/05/04 05:53:16;;;;;;;17.98;10.70;;;12.80;79.70;;;;;;5068390;28;20252;-70
2023/05/04 05:56:05;;;;;;;15.10;10.20;;;12.80;80.90;;;;;;5067546;28;20235;-70
2023/05/04 05:58:53;;;;;;;23.70;11.27;;;14.40;80.00;;;;;;5068135;28;20232;-70
2023/05/04 06:01:42;;;;;;;17.42;10.27;;;15.80;74.60;;;;;;5072701;28;20224;-70
2023/05/04 06:04:31;;;;;;;19.67;10.10;;;16.50;71.40;;;;;;5076737;28;20216;-71
2023/05/04 06:07:20;;;;;;;18.33;10.23;;;16.10;71.60;;;;;;5070382;28;20251;-71
2023/05/04 06:10:11;;;;;;;15.35;10.13;;;15.40;72.40;;;;;;5072417;28;20215;-72
2023/05/04 06:13:00;;;;;;;20.08;10.90;;;14.70;75.00;;;;;;5066117;28;20223;-73
2023/05/04 06:15:52;;;;;;;15.95;10.35;;;14.40;77.50;;;;;;5066608;28;21756;-71
2023/05/04 06:18:41;;;;;;;16.10;10.75;;;14.40;77.30;;;;;;5078193;28;20312;-70
2023/05/04 06:21:30;;;;;;;16.67;9.82;;;14.00;79.60;;;;;;5073121;28;20231;-72
2023/05/04 06:24:20;;;;;;;15.68;10.23;;;14.50;80.40;;;;;;5073956;28;20220;-70
2023/05/04 06:27:10;;;;;;;16.45;9.82;;;15.30;79.10;;;;;;5065729;28;20216;-68
2023/05/04 06:30:00;;;;;;;12.35;8.65;;;16.90;74.40;;;;;;5077351;28;20234;-68
2023/05/04 06:32:49;;;;;;;13.38;8.98;;;18.00;67.80;;;;;;5072946;28;20282;-73
2023/05/04 06:35:37;;;;;;;12.38;8.07;;;16.70;67.90;;;;;;5073829;28;20801;-71
2023/05/04 06:38:26;;;;;;;15.50;9.15;;;16.00;71.80;;;;;;5076851;28;20224;-69
2023/05/04 06:41:15;;;;;;;16.38;8.60;;;16.10;74.00;;;;;;5068582;28;20231;-70
2023/05/04 06:44:06;;;;;;;12.52;8.15;;;15.90;71.80;;;;;;5073945;28;20743;-71
2023/05/04 06:46:55;;;;;;;15.55;8.45;;;15.70;74.40;;;;;;5068644;28;20236;-69
2023/05/04 06:49:44;;;;;;;13.40;7.45;;;16.00;73.90;;;;;;5094805;28;20731;-68
2023/05/04 06:52:33;;;;;;;11.82;6.90;;;15.90;72.90;;;;;;5074275;28;20310;-69
2023/05/04 06:55:21;;;;;;;12.57;7.95;;;16.10;73.30;;;;;;5076635;28;20695;-70
2023/05/04 06:58:11;;;;;;;12.63;7.07;;;16.50;72.60;;;;;;5073470;28;20635;-70
2023/05/04 07:01:02;;;;;;;13.63;6.70;;;16.60;71.30;;;;;;5075966;28;20230;-71
2023/05/04 07:03:51;;;;;;;13.73;6.05;;;16.70;70.00;;;;;;5072539;28;20297;-72
2023/05/04 07:06:40;;;;;;;11.48;6.45;;;16.60;68.90;;;;;;5087747;27;20246;-72
2023/05/04 07:09:29;;;;;;;8.55;5.93;;;16.80;68.20;;;;;;5079398;28;20718;-72
2023/05/04 07:12:18;;;;;;;8.18;5.70;;;17.00;69.00;;;;;;5070225;28;20217;-73
2023/05/04 07:15:08;;;;;;;10.57;5.03;;;17.20;67.20;;;;;;5066891;28;20240;-71
2023/05/04 07:17:58;;;;;;;9.20;4.53;;;17.40;66.20;;;;;;5069377;28;20219;-72
2023/05/04 07:20:47;;;;;;;6.32;4.50;;;17.80;65.50;;;;;;5081935;28;20232;-71
2023/05/04 07:23:36;;;;;;;4.78;3.63;;;18.10;65.80;;;;;;5074186;28;20215;-71
2023/05/04 07:26:25;;;;;;;6.18;3.33;;;17.90;64.30;;;;;;5076246;28;20301;-72
2023/05/04 07:29:14;;;;;;;4.47;3.47;;;18.00;59.30;;;;;;5070281;28;20311;-71
2023/05/04 07:32:03;;;;;;;6.00;3.60;;;18.10;61.30;;;;;;5076275;28;20251;-71
2023/05/04 07:34:54;;;;;;;3.80;2.72;;;17.70;60.40;;;;;;5080288;28;20246;-71
2023/05/04 07:37:43;;;;;;;4.45;2.45;;;17.90;60.00;;;;;;5075287;28;20302;-71
2023/05/04 07:40:32;;;;;;;4.13;2.92;;;18.20;58.70;;;;;;5071466;28;20228;-72
2023/05/04 07:43:21;;;;;;;5.80;2.83;;;18.70;60.00;;;;;;5076474;28;20227;-71
2023/05/04 07:46:10;;;;;;;7.28;2.92;;;19.00;61.70;;;;;;5071457;28;20624;-71
2023/05/04 07:48:58;;;;;;;4.15;2.05;;;19.30;57.90;;;;;;5072536;28;20223;-71
2023/05/04 07:51:49;;;;;;;4.30;2.10;;;19.10;56.20;;;;;;5070322;28;20223;-72
2023/05/04 07:54:38;;;;;;;4.40;2.78;;;19.20;56.30;;;;;;5068681;28;20224;-70
2023/05/04 07:57:27;;;;;;;3.83;2.97;;;19.30;56.80;;;;;;5075950;28;20219;-71
2023/05/04 08:00:17;;;;;;;3.97;2.80;;;19.60;57.10;;;;;;5076353;28;20330;-72
2023/05/04 08:03:06;;;;;;;3.67;2.70;;;20.10;58.10;;;;;;5066842;28;20239;-72
2023/05/04 08:05:55;;;;;;;5.65;2.50;;;20.60;57.60;;;;;;5070137;28;20223;-72
2023/05/04 08:08:48;;;;;;;4.70;3.30;;;20.50;54.90;;;;;;5069730;28;20230;-72
2023/05/04 08:11:40;;;;;;;4.30;2.03;;;20.70;54.80;;;;;;5063404;28;20216;-72
2023/05/04 08:14:28;;;;;;;4.05;2.40;;;20.90;53.60;;;;;;5068115;28;20304;-73
2023/05/04 08:17:18;;;;;;;3.20;2.15;;;21.60;53.70;;;;;;5067516;28;20250;-72
2023/05/04 08:20:08;;;;;;;3.67;2.60;;;22.10;53.50;;;;;;5064694;28;20246;-71
2023/05/04 08:22:57;;;;;;;3.17;2.10;;;21.90;53.20;;;;;;5071576;28;20220;-73
2023/05/04 08:25:47;;;;;;;5.22;2.30;;;22.00;52.00;;;;;;5076450;28;20212;-72
2023/05/04 08:28:37;;;;;;;3.72;2.55;;;20.00;51.50;;;;;;5075456;28;20232;-71
2023/05/04 08:31:26;;;;;;;3.15;2.00;;;18.70;54.10;;;;;;5079720;28;20231;-72
2023/05/04 08:34:15;;;;;;;2.15;1.77;;;18.50;55.20;;;;;;5088917;28;20226;-71
2023/05/04 08:37:04;;;;;;;2.60;1.67;;;18.60;52.50;;;;;;5075365;28;20228;-70
2023/05/04 08:39:53;;;;;;;3.20;1.80;;;20.00;52.60;;;;;;5075843;28;20258;-71
2023/05/04 08:42:46;;;;;;;4.40;2.20;;;21.00;51.00;;;;;;5082163;28;20224;-71
2023/05/04 08:45:38;;;;;;;2.25;1.88;;;20.60;50.90;;;;;;5069661;28;20720;-71
2023/05/04 08:48:27;;;;;;;7.20;1.98;;;19.40;51.90;;;;;;5076928;28;20356;-72
2023/05/04 08:51:16;;;;;;;3.20;1.85;;;19.10;53.20;;;;;;5074087;28;20258;-72
2023/05/04 08:54:09;;;;;;;4.28;2.20;;;19.00;54.10;;;;;;5100695;27;20240;-69
2023/05/04 08:56:58;;;;;;;2.72;2.13;;;18.80;54.40;;;;;;5072212;28;20223;-69
2023/05/04 08:59:51;;;;;;;3.53;2.60;;;18.60;55.70;;;;;;5079561;28;20227;-69
2023/05/04 09:02:40;;;;;;;3.25;2.40;;;20.10;54.80;;;;;;5064729;28;20309;-69
2023/05/04 09:05:29;;;;;;;4.53;2.33;;;21.40;51.80;;;;;;5075254;28;20227;-72
2023/05/04 09:08:19;;;;;;;3.67;2.38;;;22.00;52.20;;;;;;5070215;28;20230;-72
2023/05/04 09:11:08;;;;;;;5.05;2.75;;;22.30;48.40;;;;;;5074806;28;20251;-72
2023/05/04 09:13:57;;;;;;;4.10;2.38;;;22.40;48.90;;;;;;5072794;28;20231;-73
2023/05/04 09:16:47;;;;;;;6.05;2.10;;;23.30;50.60;;;;;;5072711;27;20667;-73
2023/05/04 09:19:37;;;;;;;3.42;2.15;;;23.40;48.70;;;;;;5068850;28;20725;-71
2023/05/04 09:22:27;;;;;;;30.17;3.88;;;23.00;47.20;;;;;;5070771;28;20300;-71
2023/05/04 09:25:16;;;;;;;4.00;2.22;;;22.80;50.10;;;;;;5077581;28;20258;-72
2023/05/04 09:28:05;;;;;;;3.65;1.98;;;23.30;48.50;;;;;;5072326;28;20227;-74
2023/05/04 09:31:01;;;;;;;4.40;2.08;;;23.10;48.60;;;;;;5068915;28;20224;-70
2023/05/04 09:33:52;;;;;;;21.85;3.53;;;23.90;46.70;;;;;;5073981;28;20285;-72
2023/05/04 09:36:42;;;;;;;4.80;2.28;;;24.10;47.50;;;;;;5069611;28;20556;-70
2023/05/04 09:39:31;;;;;;;4.25;2.17;;;;;;;;;;5079229;28;20858;-69
2023/05/04 09:42:20;;;;;;;4.47;2.53;;;25.20;45.10;;;;;;5078770;28;20234;-69
2023/05/04 09:45:11;;;;;;;2.30;2.10;;;25.30;45.40;;;;;;5070833;28;20257;-69
2023/05/04 09:48:00;;;;;;;6.28;2.53;;;26.10;43.10;;;;;;5068195;28;20227;-70
2023/05/04 09:50:51;;;;;;;4.43;2.38;;;25.80;43.40;;;;;;5082703;28;20227;-69
2023/05/04 09:53:42;;;;;;;4.78;2.45;;;24.40;45.20;;;;;;5074901;28;20235;-70
2023/05/04 09:56:38;;;;;;;10.27;2.67;;;23.40;45.50;;;;;;5076075;28;20332;-69
2023/05/04 09:59:30;;;;;;;15.43;2.90;;;23.80;45.70;;;;;;5073831;28;20220;-70
2023/05/04 10:02:20;;;;;;;16.70;2.90;;;23.30;47.20;;;;;;5068570;28;20537;-69
2023/05/04 10:05:14;;;;;;;3.03;2.20;;;22.70;47.10;;;;;;5074256;28;20274;-72
2023/05/04 10:08:05;;;;;;;53.38;4.43;;;22.00;46.90;;;;;;5074503;28;20401;-69
2023/05/04 10:10:55;;;;;;;4.32;2.00;;;22.60;47.80;;;;;;5070204;28;20219;-72
2023/05/04 10:13:43;;;;;;;7.10;2.45;;;22.70;47.30;;;;;;5073669;28;20392;-70
2023/05/04 10:16:42;;;;;;;5.50;2.63;;;21.90;48.90;;;;;;5080233;28;20296;-71
2023/05/04 10:19:47;;;;;;;5.10;2.53;;;22.30;48.30;;;;;;5073505;28;20333;-71
2023/05/04 10:22:57;;;;;;;2.33;2.13;;;20.80;48.30;;;;;;5073956;28;20219;-71
2023/05/04 10:26:06;;;;;;;3.90;2.20;;;20.60;50.00;;;;;;5067304;28;20218;-70
2023/05/04 10:29:08;;;;;;;4.00;2.30;;;20.20;50.40;;;;;;5086425;28;20268;-72
2023/05/04 10:31:58;;;;;;;5.13;2.30;;;22.60;50.40;;;;;;5064576;28;20231;-72
2023/05/04 10:34:47;;;;;;;2.53;2.00;;;22.20;47.10;;;;;;5075863;28;20230;-70
2023/05/04 10:37:37;;;;;;;3.28;2.17;;;21.70;47.90;;;;;;5085196;28;20224;-72
2023/05/04 10:40:36;;;;;;;6.50;2.40;;;21.40;49.50;;;;;;5086629;28;20699;-72
2023/05/04 10:43:28;;;;;;;6.55;2.38;;;21.50;50.80;;;;;;5082412;28;20224;-72
2023/05/04 10:46:20;;;;;;;4.47;2.38;;;21.00;49.80;;;;;;5080096;28;20228;-71
2023/05/04 10:49:16;;;;;;;5.53;2.38;;;20.80;50.00;;;;;;5079988;28;20242;-72
2023/05/04 10:52:11;;;;;;;3.03;2.50;;;22.10;50.30;;;;;;5083855;28;20227;-72
2023/05/04 10:55:01;;;;;;;5.03;2.40;;;26.10;46.00;;;;;;5074251;28;20220;-72
2023/05/04 10:57:51;;;;;;;3.83;2.42;;;25.80;43.30;;;;;;5084184;28;20269;-69
2023/05/04 11:00:43;;;;;;;4.78;2.58;;;27.30;43.10;;;;;;5078272;28;20235;-72
2023/05/04 11:03:39;;;;;;;4.40;2.83;;;27.10;41.70;;;;;;5093030;28;20314;-69
2023/05/04 11:06:28;;;;;;;4.22;3.00;;;25.70;43.40;;;;;;5107917;27;20238;-71
2023/05/04 11:09:18;;;;;;;8.02;3.20;;;24.00;45.90;;;;;;5081221;28;20444;-71
2023/05/04 11:12:09;;;;;;;7.25;2.60;;;23.70;47.10;;;;;;5070849;28;20219;-71
2023/05/04 11:15:06;;;;;;;5.07;2.45;;;24.80;46.40;;;;;;5078398;27;20228;-73
2023/05/04 11:17:57;;;;;;;3.55;2.72;;;25.40;44.50;;;;;;5073350;28;20227;-73
2023/05/04 11:20:46;;;;;;;3.72;2.63;;;26.30;44.40;;;;;;5076452;28;20269;-71
2023/05/04 11:23:34;;;;;;;3.17;2.38;;;31.20;42.20;;;;;;5080764;28;20396;-71
2023/05/04 11:26:24;;;;;;;4.63;2.70;;;34.40;38.80;;;;;;5067851;28;20847;-72
2023/05/04 11:29:13;;;;;;;7.10;3.10;;;34.40;36.50;;;;;;5074106;28;20612;-73
2023/05/04 11:32:02;;;;;;;4.40;3.08;;;35.50;35.50;;;;;;5084046;28;20235;-72
2023/05/04 11:34:52;;;;;;;3.28;2.70;;;37.30;35.00;;;;;;5076534;28;20559;-71
2023/05/04 11:37:43;;;;;;;3.75;2.50;;;38.80;33.80;;;;;;5079325;27;20229;-73
2023/05/04 11:40:32;;;;;;;4.50;2.65;;;40.20;32.30;;;;;;5081877;28;20222;-72
2023/05/04 11:43:21;;;;;;;3.08;2.78;;;41.10;30.40;;;;;;5082640;28;20306;-73
2023/05/04 11:46:11;;;;;;;4.55;2.63;;;41.40;29.00;;;;;;5072100;28;20619;-73
2023/05/04 11:49:01;;;;;;;3.15;2.45;;;42.00;29.50;;;;;;5076851;28;20309;-73
2023/05/04 11:51:51;;;;;;;3.45;2.35;;;43.30;29.50;;;;;;5083706;28;20262;-73
2023/05/04 11:54:41;;;;;;;4.88;2.58;;;42.60;29.10;;;;;;5085318;28;20238;-72
2023/05/04 11:57:31;;;;;;;3.47;2.42;;;43.90;29.10;;;;;;5082975;28;20311;-73
2023/05/04 12:00:20;;;;;;;5.82;2.50;;;44.20;28.50;;;;;;5078176;28;20298;-73
2023/05/04 12:03:12;;;;;;;5.20;2.70;;;42.70;27.80;;;;;;5073992;28;20239;-70
2023/05/04 12:06:02;;;;;;;2.47;2.28;;;41.10;28.30;;;;;;5103112;28;20223;-70
2023/05/04 12:09:02;;;;;;;2.72;2.53;;;39.90;28.20;;;;;;5089443;28;20710;-73
2023/05/04 12:11:55;;;;;;;3.40;2.83;;;36.80;27.80;;;;;;5083743;28;20239;-71
2023/05/04 12:14:50;;;;;;;4.60;2.80;;;33.90;29.90;;;;;;5079114;27;20360;-71
2023/05/04 12:17:40;;;;;;;7.35;2.65;;;33.10;31.10;;;;;;5074378;28;20226;-73
2023/05/04 12:20:30;;;;;;;3.13;2.83;;;35.40;32.30;;;;;;5084038;28;20228;-72
2023/05/04 12:23:19;;;;;;;3.45;2.72;;;31.80;30.40;;;;;;5083995;28;20227;-71
2023/05/04 12:26:10;;;;;;;4.05;2.95;;;30.60;34.60;;;;;;5072715;28;20719;-71
2023/05/04 12:28:59;;;;;;;2.88;2.60;;;28.50;33.80;;;;;;5078163;28;20862;-74
2023/05/04 12:31:48;;;;;;;4.63;3.10;;;27.10;37.00;;;;;;5075457;28;20224;-71
2023/05/04 12:34:37;;;;;;;4.72;3.10;;;25.80;37.40;;;;;;5063997;28;20238;-71
2023/05/04 12:37:26;;;;;;;5.05;3.40;;;25.10;39.50;;;;;;5081820;28;20635;-71
2023/05/04 12:40:15;;;;;;;5.88;2.80;;;24.00;39.70;;;;;;5070601;28;20471;-71
2023/05/04 12:43:21;;;;;;;3.20;2.85;;;23.20;40.40;;;;;;5071742;28;20866;-71
2023/05/04 12:46:10;;;;;;;4.30;3.05;;;23.10;40.90;;;;;;5079017;28;20234;-71
2023/05/04 12:48:59;;;;;;;4.38;3.00;;;22.80;41.10;;;;;;5082161;28;20261;-71
2023/05/04 12:51:49;;;;;;;5.15;2.92;;;22.50;42.70;;;;;;5084283;28;20726;-70
2023/05/04 12:54:37;;;;;;;6.03;2.85;;;21.90;42.70;;;;;;5082238;28;20275;-70
2023/05/04 12:57:26;;;;;;;5.20;2.60;;;21.60;43.40;;;;;;5082177;28;20254;-70
2023/05/04 13:00:17;;;;;;;6.00;2.78;;;21.40;43.80;;;;;;5073824;28;20231;-70
2023/05/04 13:03:06;;;;;;;3.72;2.85;;;20.90;44.00;;;;;;5082369;28;20296;-70
2023/05/04 13:05:55;;;;;;;5.93;2.70;;;20.80;44.40;;;;;;5084265;28;20235;-71
2023/05/04 13:08:45;;;;;;;7.82;2.90;;;20.80;44.70;;;;;;5073483;28;20325;-70
2023/05/04 13:11:34;;;;;;;9.93;2.97;;;20.10;45.50;;;;;;5080647;28;20560;-71
2023/05/04 13:14:23;;;;;;;6.18;2.60;;;20.30;45.60;;;;;;5082639;28;20235;-71
2023/05/04 13:17:14;;;;;;;8.68;2.78;;;20.10;45.40;;;;;;5079127;28;20231;-71
2023/05/04 13:20:04;;;;;;;3.92;2.92;;;20.20;45.70;;;;;;5080538;28;20527;-70
2023/05/04 13:22:54;;;;;;;6.00;3.10;;;20.30;45.80;;;;;;5084071;28;20231;-68
2023/05/04 13:25:45;;;;;;;5.30;2.95;;;20.20;45.50;;;;;;5076266;28;20228;-70
2023/05/04 13:28:34;;;;;;;4.57;2.60;;;20.20;46.00;;;;;;5067767;28;20251;-71
2023/05/04 13:31:26;;;;;;;3.88;2.90;;;20.20;46.80;;;;;;5076569;28;20718;-70
2023/05/04 13:34:17;;;;;;;3.53;2.63;;;20.20;46.20;;;;;;5068920;28;20707;-72
2023/05/04 13:37:05;;;;;;;5.00;3.00;;;20.00;45.60;;;;;;5068169;28;20383;-71
2023/05/04 13:39:55;;;;;;;4.53;2.72;;;20.20;46.30;;;;;;5075567;28;20281;-72
2023/05/04 13:42:43;;;;;;;8.35;2.80;;;19.90;45.80;;;;;;5066028;28;20241;-71
2023/05/04 13:45:33;;;;;;;5.47;2.83;;;19.50;46.40;;;;;;5075166;28;20360;-75
2023/05/04 13:48:24;;;;;;;3.83;2.78;;;19.60;47.50;;;;;;5073235;28;20513;-72
2023/05/04 13:51:15;;;;;;;4.45;2.45;;;19.60;46.50;;;;;;5079409;28;20221;-71
2023/05/04 13:54:04;;;;;;;3.90;2.30;;;19.60;46.60;;;;;;5088019;28;20223;-71
2023/05/04 13:56:53;;;;;;;4.50;2.63;;;19.60;46.30;;;;;;5078960;28;20291;-71
2023/05/04 13:59:41;;;;;;;5.40;2.80;;;19.60;46.30;;;;;;5082420;28;20257;-70
2023/05/04 14:02:46;;;;;;;4.18;2.63;;;19.60;47.50;;;;;;5064324;28;20228;-71
2023/05/04 14:05:35;;;;;;;5.13;2.60;;;19.80;48.40;;;;;;5081400;28;20226;-71
2023/05/04 14:08:25;;;;;;;5.97;3.03;;;19.80;49.00;;;;;;5081007;28;20220;-72
2023/05/04 14:11:15;;;;;;;5.25;2.50;;;19.60;47.30;;;;;;5072460;28;20247;-71
2023/05/04 14:14:04;;;;;;;6.47;2.70;;;19.50;46.50;;;;;;5082285;28;20231;-72
2023/05/04 14:16:52;;;;;;;6.30;2.78;;;19.40;46.50;;;;;;5072621;28;21065;-71
2023/05/04 14:19:41;;;;;;;4.50;3.03;;;19.10;47.50;;;;;;5082344;28;21015;-72
2023/05/04 14:22:30;;;;;;;6.40;3.08;;;19.20;48.00;;;;;;5074947;28;20220;-72
2023/05/04 14:25:21;;;;;;;6.53;2.70;;;19.20;47.50;;;;;;5074987;28;20603;-71
2023/05/04 14:28:10;;;;;;;5.80;2.70;;;19.10;48.00;;;;;;5080399;28;20632;-71
2023/05/04 14:31:07;;;;;;;3.65;2.60;;;19.20;47.80;;;;;;5099844;28;20230;-71
2023/05/04 14:33:56;;;;;;;3.78;2.40;;;19.10;49.00;;;;;;5072846;28;20227;-71
2023/05/04 14:36:45;;;;;;;6.82;2.50;;;19.20;47.50;;;;;;5082193;28;20235;-70
2023/05/04 14:39:34;;;;;;;6.07;2.58;;;19.10;47.50;;;;;;5081185;28;20231;-72